Portada
METAR-TAF:

METAR-TAF

Aeroports :

Jacksonville Municipal Airport

Jacksonville, Illinois, Estats Units d'Amèrica

latitud: 39-46-27N, longitud: 090-14-19W, altitud: 190 m

Observació

L'informe es va fer fa 34 minuts, a les 14:35 UTC
Vent 5 kt del Est/Sud-Est
Temperatura 2°C
Humitat 93%
Pressió 1015 hPa
Visibilitat: 4.0 km
Cel cobert a una alçada de 2800 ft
pluja

METAR: KIJX 171435Z AUTO 11005KT 2 1/2SM RA OVC028 02/01 A2997 RMK AO2 P0007 T00210014

Hora: 09:09 (15:09 UTC)


TAF: manca

Observacions i pronòstics meteorològics de més de 4000 aeroports (METAR i TAF).

Les estacions disponibles són els punts grocs i vermells al mapa.

Posi el ratolí al punt desitjat per veure el nom de l'estació.

Feu clic per veure les observacions i els pronòstics meteorològics.

Per canviar el mapa: feu clic els botons verds amb una creu de color negre per apropar; al botó verd amb un guió per allunyar la imatge; o en les fletxes verdes per a mapes adjacents.


METAR-TAF: